createdAt,value
2022-12-20T00:00:15.075Z,101255.78
2022-12-20T00:02:43.336Z,101254.31
2022-12-20T00:05:11.529Z,101248.06
2022-12-20T00:07:45.605Z,101242.25
2022-12-20T00:10:15.345Z,101239.72
2022-12-20T00:13:02.827Z,101236.56
2022-12-20T00:15:36.355Z,101227.56
2022-12-20T00:18:16.550Z,101216.47
2022-12-20T00:20:46.618Z,101225.28
2022-12-20T00:23:14.675Z,101212.81
2022-12-20T00:25:44.028Z,101210.50
2022-12-20T00:28:15.697Z,101210.09
2022-12-20T00:30:46.603Z,101205.34
2022-12-20T00:33:14.439Z,101209.13
2022-12-20T00:35:43.757Z,101206.44
2022-12-20T00:38:11.520Z,101202.97
2022-12-20T00:40:47.186Z,101206.72
2022-12-20T00:43:16.292Z,101207.28
2022-12-20T00:45:43.985Z,101208.53
2022-12-20T00:48:11.559Z,101201.69
2022-12-20T00:50:39.083Z,101209.34
2022-12-20T00:53:09.853Z,101195.22
2022-12-20T00:55:42.355Z,101192.66
2022-12-20T00:58:10.406Z,101205.16
2022-12-20T01:00:39.758Z,101194.28
2022-12-20T01:03:07.983Z,101198.28
2022-12-20T01:05:35.725Z,101197.41
2022-12-20T01:08:03.261Z,101198.84
2022-12-20T01:10:30.822Z,101200.88
2022-12-20T01:12:58.469Z,101200.34
2022-12-20T01:15:26.013Z,101213.13
2022-12-20T01:17:55.065Z,101199.28
2022-12-20T01:20:22.626Z,101203.56
2022-12-20T01:22:50.867Z,101202.06
2022-12-20T01:25:18.432Z,101202.97
2022-12-20T01:27:46.260Z,101199.81
2022-12-20T01:30:14.417Z,101185.75
2022-12-20T01:32:42.066Z,101207.63
2022-12-20T01:35:11.226Z,101210.63
2022-12-20T01:37:38.983Z,101203.88
2022-12-20T01:40:10.221Z,101206.19
2022-12-20T01:42:38.040Z,101203.88
2022-12-20T01:45:09.629Z,101210.13
2022-12-20T01:47:37.970Z,101204.47
2022-12-20T01:50:07.493Z,101204.81
2022-12-20T01:52:38.609Z,101204.25
2022-12-20T01:55:10.445Z,101192.91
2022-12-20T01:57:42.073Z,101182.19
2022-12-20T02:00:10.990Z,101179.63
2022-12-20T02:02:39.147Z,101168.09
2022-12-20T02:05:07.207Z,101169.81
2022-12-20T02:07:38.416Z,101168.94
2022-12-20T02:10:07.784Z,101174.44
2022-12-20T02:12:39.696Z,101175.00
2022-12-20T02:15:20.752Z,101161.19
2022-12-20T02:17:55.685Z,101154.75
2022-12-20T02:20:58.259Z,101142.72
2022-12-20T02:24:06.890Z,101142.00
2022-12-20T02:26:59.855Z,101142.28
2022-12-20T02:29:35.284Z,101135.69
2022-12-20T02:32:09.726Z,101117.91
2022-12-20T02:34:38.756Z,101123.97
2022-12-20T02:37:06.315Z,101110.81
2022-12-20T02:39:34.936Z,101126.34
2022-12-20T02:42:05.139Z,101126.31
2022-12-20T02:44:51.602Z,101119.59
2022-12-20T02:47:22.913Z,101116.00
2022-12-20T02:49:51.604Z,101122.28
2022-12-20T02:52:20.852Z,101124.56
2022-12-20T02:54:48.590Z,101111.88
2022-12-20T02:57:19.517Z,101111.22
2022-12-20T02:59:51.914Z,101107.66
2022-12-20T03:02:21.195Z,101113.16
2022-12-20T03:04:49.883Z,101094.69
2022-12-20T03:07:20.334Z,101098.69
2022-12-20T03:09:47.895Z,101102.47
2022-12-20T03:12:16.688Z,101105.47
2022-12-20T03:14:44.365Z,101107.66
2022-12-20T03:17:12.169Z,101115.88
2022-12-20T03:19:41.139Z,101104.03
2022-12-20T03:22:08.667Z,101110.31
2022-12-20T03:24:36.178Z,101116.84
2022-12-20T03:27:03.730Z,101102.25
2022-12-20T03:29:31.288Z,101109.00
2022-12-20T03:31:58.797Z,101101.31
2022-12-20T03:34:26.299Z,101113.13
2022-12-20T03:36:55.130Z,101104.13
2022-12-20T03:39:22.659Z,101105.03
2022-12-20T03:41:50.186Z,101113.75
2022-12-20T03:44:17.984Z,101100.56
2022-12-20T03:46:45.608Z,101093.25
2022-12-20T03:49:13.122Z,101079.91
2022-12-20T03:51:40.610Z,101075.63
2022-12-20T03:54:09.437Z,101058.09
2022-12-20T03:56:36.927Z,101071.91
2022-12-20T03:59:04.726Z,101070.06
2022-12-20T04:01:36.484Z,101091.97
2022-12-20T04:04:04.516Z,101097.31
2022-12-20T04:06:32.336Z,101092.13
2022-12-20T04:08:59.844Z,101103.97
2022-12-20T04:11:28.734Z,101099.94
2022-12-20T04:13:56.269Z,101085.75
2022-12-20T04:16:25.842Z,101081.94
2022-12-20T04:18:53.814Z,101091.63
2022-12-20T04:21:24.548Z,101085.97
2022-12-20T04:23:52.142Z,101082.38
2022-12-20T04:26:20.432Z,101080.78
2022-12-20T04:28:49.306Z,101067.56
2022-12-20T04:31:21.910Z,101059.00
2022-12-20T04:33:51.511Z,101060.13
2022-12-20T04:36:19.045Z,101059.44
2022-12-20T04:38:46.665Z,101063.84
2022-12-20T04:41:22.234Z,101057.22
2022-12-20T04:43:53.164Z,101044.16
2022-12-20T04:46:21.070Z,101042.59
2022-12-20T04:48:58.486Z,101020.00
2022-12-20T04:51:27.213Z,101028.34
2022-12-20T04:53:54.243Z,101030.09
2022-12-20T04:56:24.189Z,101049.06
2022-12-20T04:58:54.813Z,101067.09
2022-12-20T05:01:22.992Z,101052.28
2022-12-20T05:03:50.810Z,101053.34
2022-12-20T05:06:18.828Z,101052.75
2022-12-20T05:08:46.528Z,101058.00
2022-12-20T05:11:14.072Z,101059.19
2022-12-20T05:13:42.032Z,101056.66
2022-12-20T05:16:11.063Z,101055.59
2022-12-20T05:18:43.132Z,101056.31
2022-12-20T05:21:33.452Z,101049.38
2022-12-20T05:24:18.564Z,101044.94
2022-12-20T05:26:46.127Z,101045.53
2022-12-20T05:29:13.624Z,101049.22
2022-12-20T05:31:42.536Z,101058.25
2022-12-20T05:34:10.114Z,101063.34
2022-12-20T05:36:37.649Z,101049.94
2022-12-20T05:39:06.015Z,101045.78
2022-12-20T05:41:33.564Z,101030.09
2022-12-20T05:44:01.887Z,101033.81
2022-12-20T05:46:29.439Z,101035.50
2022-12-20T05:48:58.271Z,101033.00
2022-12-20T05:51:26.009Z,101024.63
2022-12-20T05:53:53.491Z,101026.50
2022-12-20T05:56:20.991Z,101024.84
2022-12-20T05:58:48.517Z,101022.47
2022-12-20T06:01:16.003Z,101010.84
2022-12-20T06:03:43.688Z,101005.72
2022-12-20T06:06:14.985Z,101007.41
2022-12-20T06:08:43.166Z,101017.66
2022-12-20T06:11:10.690Z,101022.34
2022-12-20T06:13:38.241Z,101013.44
2022-12-20T06:16:07.261Z,101009.78
2022-12-20T06:18:34.819Z,100993.78
2022-12-20T06:21:02.335Z,101004.38
2022-12-20T06:23:31.261Z,101013.97
2022-12-20T06:25:58.977Z,101006.13
2022-12-20T06:28:26.507Z,100999.88
2022-12-20T06:30:54.880Z,100992.75
2022-12-20T06:33:22.807Z,101003.13
2022-12-20T06:35:51.121Z,101008.94
2022-12-20T06:38:19.066Z,101024.84
2022-12-20T06:40:48.004Z,101028.66
2022-12-20T06:43:15.578Z,101026.56
2022-12-20T06:45:43.283Z,101021.09
2022-12-20T06:48:10.959Z,101040.66
2022-12-20T06:50:39.091Z,101037.56
2022-12-20T06:53:06.636Z,101044.19
2022-12-20T06:55:34.215Z,101045.38
2022-12-20T06:58:04.529Z,101042.31
2022-12-20T07:00:32.154Z,101030.38
2022-12-20T07:02:59.856Z,101020.97
2022-12-20T07:05:27.453Z,101014.66
2022-12-20T07:07:54.953Z,101019.66
2022-12-20T07:10:25.036Z,101017.78
2022-12-20T07:12:53.468Z,101012.72
2022-12-20T07:15:23.138Z,101015.22
2022-12-20T07:17:51.459Z,100995.81
2022-12-20T07:20:19.401Z,100995.59
2022-12-20T07:22:49.513Z,101000.84
2022-12-20T07:25:17.200Z,100978.31
2022-12-20T07:27:47.799Z,100998.47
2022-12-20T07:30:15.622Z,100996.47
2022-12-20T07:32:44.597Z,100986.56
2022-12-20T07:35:12.352Z,100983.78
2022-12-20T07:37:39.944Z,100978.91
2022-12-20T07:40:09.396Z,100995.41
2022-12-20T07:42:40.297Z,100986.19
2022-12-20T07:45:10.780Z,100983.69
2022-12-20T07:47:38.347Z,100983.91
2022-12-20T07:50:09.215Z,100981.53
2022-12-20T07:52:37.420Z,100989.88
2022-12-20T07:55:06.946Z,100985.47
2022-12-20T07:57:38.841Z,100982.25
2022-12-20T08:00:09.362Z,100977.00
2022-12-20T08:02:39.602Z,100983.78
2022-12-20T08:05:09.837Z,100965.81
2022-12-20T08:07:37.995Z,100953.16
2022-12-20T08:10:06.820Z,100943.25
2022-12-20T08:12:34.426Z,100953.50
2022-12-20T08:15:02.108Z,100954.00
2022-12-20T08:17:29.746Z,100952.69
2022-12-20T08:19:57.704Z,100944.81
2022-12-20T08:22:26.697Z,100947.66
2022-12-20T08:24:54.212Z,100951.38
2022-12-20T08:27:21.797Z,100953.28
2022-12-20T08:29:49.741Z,100946.47
2022-12-20T08:32:17.468Z,100956.50
2022-12-20T08:34:45.244Z,100957.44
2022-12-20T08:37:15.121Z,100943.69
2022-12-20T08:39:44.282Z,100945.22
2022-12-20T08:42:11.853Z,100947.38
2022-12-20T08:44:39.917Z,100954.16
2022-12-20T08:47:07.645Z,100955.16
2022-12-20T08:49:35.236Z,100937.16
2022-12-20T08:52:02.957Z,100947.00
2022-12-20T08:54:30.462Z,100958.56
2022-12-20T08:56:59.399Z,100952.09
2022-12-20T08:59:27.133Z,100952.00
2022-12-20T09:01:54.887Z,100959.88
2022-12-20T09:04:22.625Z,100959.53
2022-12-20T09:06:50.123Z,100946.84
2022-12-20T09:09:17.643Z,100949.47
2022-12-20T09:11:45.251Z,100963.13
2022-12-20T09:14:14.179Z,100955.47
2022-12-20T09:16:41.799Z,100945.66
2022-12-20T09:19:12.083Z,100946.09
2022-12-20T09:21:39.670Z,100945.91
2022-12-20T09:24:08.037Z,100943.59
2022-12-20T09:26:36.106Z,100943.03
2022-12-20T09:29:04.192Z,100936.44
2022-12-20T09:31:33.287Z,100931.28
2022-12-20T09:34:01.342Z,100939.19
2022-12-20T09:36:29.789Z,100927.88
2022-12-20T09:38:57.879Z,100929.88
2022-12-20T09:41:30.624Z,100925.53
2022-12-20T09:43:59.083Z,100930.56
2022-12-20T09:46:27.171Z,100936.06
2022-12-20T09:48:56.241Z,100927.16
2022-12-20T09:51:35.020Z,100934.94
2022-12-20T09:54:09.662Z,100923.00
2022-12-20T09:56:39.075Z,100911.91
2022-12-20T09:59:08.112Z,100903.91
2022-12-20T10:01:39.910Z,100894.75
2022-12-20T10:04:18.417Z,100902.16
2022-12-20T10:06:51.667Z,100903.56
2022-12-20T10:09:36.251Z,100898.06
2022-12-20T10:12:11.693Z,100890.38
2022-12-20T10:14:50.310Z,100897.03
2022-12-20T10:17:32.170Z,100900.66
2022-12-20T10:20:17.339Z,100894.22
2022-12-20T10:22:48.459Z,100888.88
2022-12-20T10:25:18.937Z,100888.06
2022-12-20T10:27:48.244Z,100899.78
2022-12-20T10:30:17.764Z,100892.91
2022-12-20T10:32:47.045Z,100888.09
2022-12-20T10:35:25.511Z,100882.56
2022-12-20T10:38:07.952Z,100867.03
2022-12-20T10:41:18.503Z,100865.25
2022-12-20T10:43:27.074Z,100863.03
2022-12-20T10:45:59.885Z,100862.88
2022-12-20T10:48:31.259Z,100864.69
2022-12-20T10:51:02.607Z,100879.50
2022-12-20T10:53:30.913Z,100869.81
2022-12-20T10:56:14.429Z,100857.78
2022-12-20T10:58:42.186Z,100847.00
2022-12-20T11:01:15.273Z,100845.41
2022-12-20T11:03:57.574Z,100838.91
2022-12-20T11:06:28.463Z,100831.28
2022-12-20T11:09:15.468Z,100840.47
2022-12-20T11:11:58.633Z,100831.84
2022-12-20T11:14:26.383Z,100835.06
2022-12-20T11:16:55.414Z,100828.25
2022-12-20T11:19:35.924Z,100823.81
2022-12-20T11:22:09.028Z,100816.09
2022-12-20T11:24:43.471Z,100813.03
2022-12-20T11:27:17.617Z,100806.28
2022-12-20T11:29:59.994Z,100803.78
2022-12-20T11:32:36.990Z,100805.72
2022-12-20T11:35:11.427Z,100809.75
2022-12-20T11:37:47.003Z,100801.97
2022-12-20T11:40:23.449Z,100798.94
2022-12-20T11:43:02.033Z,100793.13
2022-12-20T11:45:33.029Z,100777.59
2022-12-20T11:48:19.871Z,100759.72
2022-12-20T11:50:55.876Z,100752.91
2022-12-20T11:53:29.326Z,100755.69
2022-12-20T11:55:59.439Z,100762.34
2022-12-20T11:58:28.356Z,100766.78
2022-12-20T12:00:58.441Z,100763.75
2022-12-20T12:03:31.569Z,100763.59
2022-12-20T12:06:01.927Z,100760.13
2022-12-20T12:08:36.956Z,100757.50
2022-12-20T12:11:07.879Z,100742.03
2022-12-20T12:13:37.540Z,100758.13
2022-12-20T12:16:09.330Z,100752.53
2022-12-20T12:18:37.818Z,100747.00
2022-12-20T12:21:10.322Z,100744.38
2022-12-20T12:23:45.497Z,100742.81
2022-12-20T12:26:15.660Z,100740.03
2022-12-20T12:28:43.134Z,100743.09
2022-12-20T12:31:14.794Z,100742.59
2022-12-20T12:33:44.552Z,100734.66
2022-12-20T12:36:32.204Z,100730.06
2022-12-20T12:39:36.198Z,100731.28
2022-12-20T12:42:33.265Z,100724.34
2022-12-20T12:45:02.745Z,100725.06
2022-12-20T12:47:36.236Z,100727.56
2022-12-20T12:50:04.745Z,100728.22
2022-12-20T12:52:44.545Z,100739.75
2022-12-20T12:55:41.588Z,100728.78
2022-12-20T12:58:46.371Z,100712.38
2022-12-20T13:01:49.358Z,100703.75
2022-12-20T13:04:26.293Z,100686.13
2022-12-20T13:07:05.073Z,100687.25
2022-12-20T13:09:43.608Z,100679.72
2022-12-20T13:12:50.867Z,100686.91
2022-12-20T13:15:51.842Z,100676.06
2022-12-20T13:18:26.999Z,100677.72
2022-12-20T13:21:30.334Z,100680.66
2022-12-20T13:24:37.548Z,100683.97
2022-12-20T13:27:15.792Z,100682.63
2022-12-20T13:30:17.196Z,100675.84
2022-12-20T13:33:00.855Z,100676.28
2022-12-20T13:35:33.969Z,100671.53
2022-12-20T13:38:04.640Z,100670.25
2022-12-20T13:40:37.592Z,100685.34
2022-12-20T13:43:07.795Z,100694.66
2022-12-20T13:45:35.271Z,100702.00
2022-12-20T13:48:11.130Z,100692.94
2022-12-20T13:50:40.603Z,100697.06
2022-12-20T13:53:17.219Z,100689.84
2022-12-20T13:55:45.170Z,100693.16
2022-12-20T13:58:15.163Z,100698.28
2022-12-20T14:00:42.820Z,100686.91
2022-12-20T14:03:22.841Z,100697.03
2022-12-20T14:05:50.573Z,100702.47
2022-12-20T14:08:21.011Z,100692.84
2022-12-20T14:10:48.453Z,100687.56
2022-12-20T14:13:21.996Z,100679.94
2022-12-20T14:15:49.928Z,100672.34
2022-12-20T14:18:21.313Z,100665.53
2022-12-20T14:20:51.864Z,100657.63
2022-12-20T14:23:20.985Z,100656.53
2022-12-20T14:25:50.517Z,100655.69
2022-12-20T14:28:27.979Z,100652.78
2022-12-20T14:30:56.355Z,100651.59
2022-12-20T14:33:30.889Z,100658.00
2022-12-20T14:35:59.848Z,100665.50
2022-12-20T14:38:31.442Z,100660.97
2022-12-20T14:40:59.998Z,100652.81
2022-12-20T14:43:30.331Z,100650.34
2022-12-20T14:46:18.079Z,100647.28
2022-12-20T14:48:47.484Z,100637.88
2022-12-20T14:51:21.287Z,100637.19
2022-12-20T14:53:49.836Z,100638.75
2022-12-20T14:56:21.704Z,100635.13
2022-12-20T14:59:03.678Z,100634.06
2022-12-20T15:01:35.910Z,100625.44
2022-12-20T15:04:23.346Z,100620.75
2022-12-20T15:06:52.471Z,100625.34
2022-12-20T15:09:20.546Z,100628.66
2022-12-20T15:11:48.583Z,100626.56
2022-12-20T15:14:36.616Z,100608.88
2022-12-20T15:17:05.705Z,100617.66
2022-12-20T15:19:40.336Z,100614.09
2022-12-20T15:22:14.605Z,100619.09
2022-12-20T15:24:43.359Z,100627.72
2022-12-20T15:27:13.616Z,100630.66
2022-12-20T15:29:41.160Z,100623.19
2022-12-20T15:32:16.198Z,100600.31
2022-12-20T15:34:45.039Z,100610.00
2022-12-20T15:37:18.263Z,100597.25
2022-12-20T15:39:46.385Z,100597.53
2022-12-20T15:42:16.521Z,100609.50
2022-12-20T15:44:44.043Z,100630.88
2022-12-20T15:47:13.533Z,100628.06
2022-12-20T15:49:46.304Z,100623.09
2022-12-20T15:52:21.585Z,100621.69
2022-12-20T15:54:49.607Z,100600.91
2022-12-20T15:57:17.419Z,100605.94
2022-12-20T16:00:02.294Z,100611.34
2022-12-20T16:02:31.506Z,100604.56
2022-12-20T16:04:59.563Z,100595.25
2022-12-20T16:07:28.420Z,100598.72
2022-12-20T16:09:55.912Z,100585.84
2022-12-20T16:12:25.784Z,100598.03
2022-12-20T16:14:53.510Z,100594.75
2022-12-20T16:17:21.043Z,100598.19
2022-12-20T16:19:48.531Z,100608.19
2022-12-20T16:22:17.596Z,100620.66
2022-12-20T16:24:46.766Z,100617.47
2022-12-20T16:27:14.568Z,100610.13
2022-12-20T16:29:42.260Z,100616.50
2022-12-20T16:32:14.213Z,100615.28
2022-12-20T16:34:41.793Z,100598.09
2022-12-20T16:37:09.297Z,100610.88
2022-12-20T16:39:36.956Z,100612.94
2022-12-20T16:42:10.665Z,100608.50
2022-12-20T16:44:42.608Z,100615.44
2022-12-20T16:47:10.914Z,100621.69
2022-12-20T16:49:38.519Z,100617.09
2022-12-20T16:52:06.581Z,100606.81
2022-12-20T16:54:34.221Z,100606.59
2022-12-20T16:57:01.696Z,100605.75
2022-12-20T16:59:30.810Z,100606.00
2022-12-20T17:01:58.406Z,100608.66
2022-12-20T17:04:26.646Z,100600.91
2022-12-20T17:06:54.467Z,100596.03
2022-12-20T17:09:21.947Z,100591.75
2022-12-20T17:11:50.153Z,100584.84
2022-12-20T17:14:19.681Z,100588.84
2022-12-20T17:16:48.682Z,100582.75
2022-12-20T17:19:16.295Z,100595.75
2022-12-20T17:24:30.805Z,100598.53
2022-12-20T17:26:58.512Z,100601.16
2022-12-20T17:29:25.994Z,100604.94
2022-12-20T17:31:55.037Z,100595.09
2022-12-20T17:34:24.465Z,100588.00
2022-12-20T17:36:54.111Z,100594.13
2022-12-20T17:39:22.359Z,100585.22
2022-12-20T17:41:50.303Z,100573.88
2022-12-20T17:44:19.281Z,100572.75
2022-12-20T17:46:46.832Z,100562.34
2022-12-20T17:49:15.961Z,100555.44
2022-12-20T17:51:44.070Z,100559.19
2022-12-20T17:54:17.858Z,100542.53
2022-12-20T17:56:46.115Z,100565.25
2022-12-20T17:59:14.564Z,100573.56
2022-12-20T18:01:46.085Z,100574.31
2022-12-20T18:04:18.220Z,100559.59
2022-12-20T18:06:46.926Z,100562.53
2022-12-20T18:09:15.759Z,100560.59
2022-12-20T18:11:43.652Z,100562.25
2022-12-20T18:14:11.720Z,100562.53
2022-12-20T18:16:40.334Z,100557.25
2022-12-20T18:19:08.367Z,100555.00
2022-12-20T18:21:37.231Z,100558.50
2022-12-20T18:24:05.072Z,100552.94
2022-12-20T18:26:34.659Z,100553.06
2022-12-20T18:29:03.519Z,100555.31
2022-12-20T18:31:33.837Z,100548.09
2022-12-20T18:34:02.795Z,100557.25
2022-12-20T18:36:32.293Z,100551.00
2022-12-20T18:39:02.054Z,100553.78
2022-12-20T18:41:31.256Z,100551.16
2022-12-20T18:44:00.076Z,100548.38
2022-12-20T18:46:27.938Z,100554.31
2022-12-20T18:48:56.798Z,100534.94
2022-12-20T18:51:26.316Z,100534.22
2022-12-20T18:53:55.264Z,100523.69
2022-12-20T18:56:26.279Z,100529.25
2022-12-20T18:58:54.021Z,100528.81
2022-12-20T19:01:25.143Z,100522.31
2022-12-20T19:03:54.050Z,100526.47
2022-12-20T19:06:22.562Z,100519.66
2022-12-20T19:08:50.611Z,100522.69
2022-12-20T19:11:20.111Z,100522.84
2022-12-20T19:13:49.206Z,100524.78
2022-12-20T19:16:18.642Z,100533.66
2022-12-20T19:18:46.598Z,100532.16
2022-12-20T19:21:19.560Z,100536.56
2022-12-20T19:23:49.957Z,100527.84
2022-12-20T19:26:19.425Z,100533.38
2022-12-20T19:28:51.254Z,100530.88
2022-12-20T19:31:23.700Z,100528.38
2022-12-20T19:33:53.192Z,100521.47
2022-12-20T19:36:23.052Z,100526.03
2022-12-20T19:38:52.110Z,100524.09
2022-12-20T19:41:20.467Z,100528.53
2022-12-20T19:43:48.514Z,100527.41
2022-12-20T19:46:27.999Z,100525.63
2022-12-20T19:48:57.317Z,100518.56
2022-12-20T19:51:25.676Z,100529.91
2022-12-20T19:53:54.445Z,100528.94
2022-12-20T19:56:25.195Z,100522.13
2022-12-20T19:58:53.936Z,100531.25
2022-12-20T20:01:25.851Z,100528.75
2022-12-20T20:03:54.486Z,100537.09
2022-12-20T20:06:22.745Z,100538.91
2022-12-20T20:08:50.778Z,100537.94
2022-12-20T20:11:19.403Z,100541.97
2022-12-20T20:13:47.222Z,100541.97
2022-12-20T20:16:21.562Z,100536.16
2022-12-20T20:18:51.469Z,100542.53
2022-12-20T20:21:21.913Z,100545.59
2022-12-20T20:23:50.121Z,100542.81
2022-12-20T20:26:19.970Z,100540.34
2022-12-20T20:28:47.637Z,100542.13
2022-12-20T20:31:16.598Z,100540.72
2022-12-20T20:33:45.603Z,100538.34
2022-12-20T20:36:16.148Z,100551.66
2022-12-20T20:38:43.830Z,100543.50
2022-12-20T20:41:12.073Z,100552.06
2022-12-20T20:43:39.704Z,100553.31
2022-12-20T20:46:09.320Z,100547.25
2022-12-20T20:48:36.955Z,100545.03
2022-12-20T20:51:05.202Z,100544.63
2022-12-20T20:53:34.711Z,100545.31
2022-12-20T20:56:02.553Z,100540.06
2022-12-20T20:58:30.276Z,100543.34
2022-12-20T21:00:59.285Z,100538.94
2022-12-20T21:03:27.190Z,100534.22
2022-12-20T21:08:44.064Z,100532.81
2022-12-20T21:11:12.841Z,100533.50
2022-12-20T21:13:40.742Z,100527.97
2022-12-20T21:16:09.760Z,100526.19
2022-12-20T21:18:37.679Z,100523.13
2022-12-20T21:21:09.401Z,100518.41
2022-12-20T21:23:37.209Z,100516.44
2022-12-20T21:26:07.480Z,100509.25
2022-12-20T21:28:35.575Z,100521.13
2022-12-20T21:31:05.434Z,100513.59
2022-12-20T21:33:33.639Z,100507.50
2022-12-20T21:36:02.050Z,100506.03
2022-12-20T21:38:30.003Z,100503.88
2022-12-20T21:41:01.611Z,100504.69
2022-12-20T21:43:30.788Z,100505.38
2022-12-20T21:45:58.700Z,100507.09
2022-12-20T21:48:27.119Z,100499.38
2022-12-20T21:51:02.209Z,100491.41
2022-12-20T21:53:30.318Z,100489.31
2022-12-20T21:55:59.021Z,100491.94
2022-12-20T21:58:27.521Z,100486.81
2022-12-20T22:00:57.900Z,100483.34
2022-12-20T22:03:26.506Z,100483.19
2022-12-20T22:05:55.515Z,100476.63
2022-12-20T22:08:23.644Z,100474.00
2022-12-20T22:10:59.130Z,100468.72
2022-12-20T22:13:26.761Z,100472.06
2022-12-20T22:15:55.681Z,100470.72
2022-12-20T22:18:23.229Z,100472.06
2022-12-20T22:20:50.997Z,100479.66
2022-12-20T22:23:18.571Z,100473.72
2022-12-20T22:25:46.080Z,100470.72
2022-12-20T22:28:13.645Z,100470.84
2022-12-20T22:30:42.505Z,100471.28
2022-12-20T22:33:11.733Z,100464.22
2022-12-20T22:35:41.022Z,100468.50
2022-12-20T22:38:10.587Z,100460.06
2022-12-20T22:40:38.365Z,100466.72
2022-12-20T22:43:06.199Z,100466.72
2022-12-20T22:45:38.246Z,100461.47
2022-12-20T22:48:06.458Z,100455.25
2022-12-20T22:50:35.635Z,100460.78
2022-12-20T22:53:04.312Z,100460.47
2022-12-20T22:55:54.711Z,100461.38
2022-12-20T22:58:22.662Z,100450.91
2022-12-20T23:00:51.744Z,100443.44
2022-12-20T23:03:19.336Z,100460.94
2022-12-20T23:05:54.269Z,100461.81
2022-12-20T23:08:22.747Z,100459.66
2022-12-20T23:11:08.503Z,100453.41
2022-12-20T23:13:53.812Z,100456.78
2022-12-20T23:16:21.466Z,100448.63
2022-12-20T23:18:49.487Z,100440.91
2022-12-20T23:21:35.914Z,100451.34
2022-12-20T23:24:03.817Z,100443.88
2022-12-20T23:26:31.481Z,100445.63
2022-12-20T23:28:59.051Z,100448.56
2022-12-20T23:31:26.863Z,100439.63
2022-12-20T23:33:54.485Z,100442.91
2022-12-20T23:36:23.311Z,100445.69
2022-12-20T23:38:50.778Z,100436.28
2022-12-20T23:41:18.396Z,100443.22
2022-12-20T23:43:45.846Z,100434.78
2022-12-20T23:46:15.147Z,100434.41
2022-12-20T23:48:42.768Z,100433.81
2022-12-20T23:51:10.534Z,100437.75
2022-12-20T23:53:39.657Z,100434.19
2022-12-20T23:56:08.834Z,100431.13
2022-12-20T23:58:36.527Z,100428.63
